Time;durP1;ratioP1;P1;durP2;ratioP2;P2;SDS_P1;SDS_P2;PMS_P1;PMS_P2;Temp;Humidity;BMP_temperature;BMP_pressure;BME280_temperature;BME280_humidity;BME280_pressure;Samples;Min_cycle;Max_cycle;Signal;HPM_P1;HPM_P2
2021/08/15 00:01:46;;;;;;;23.53;21.17;;;;;;;20.24;84.97;98993.39;124796;1093;64252;-88
2021/08/15 00:04:13;;;;;;;21.60;19.50;;;;;;;20.21;84.96;98988.31;124863;1093;64312;-88
2021/08/15 00:06:39;;;;;;;21.30;19.23;;;;;;;20.19;85.06;98991.17;124981;1093;64273;-86
2021/08/15 00:09:06;;;;;;;23.47;21.17;;;;;;;20.19;85.74;98991.17;124907;1093;64204;-86
2021/08/15 00:11:33;;;;;;;22.20;20.00;;;;;;;20.20;85.88;98992.05;124874;1093;64236;-86
2021/08/15 00:14:00;;;;;;;21.15;19.00;;;;;;;20.16;85.48;98984.23;124854;1093;64242;-87
2021/08/15 00:16:27;;;;;;;21.83;19.53;;;;;;;20.13;85.60;98987.27;124905;1093;64245;-86
2021/08/15 00:18:53;;;;;;;21.50;19.20;;;;;;;20.11;85.63;98988.44;124899;1093;64370;-86
2021/08/15 00:21:20;;;;;;;23.53;20.67;;;;;;;20.07;85.53;98992.50;124790;1093;64837;-87
2021/08/15 00:23:47;;;;;;;22.20;20.00;;;;;;;20.05;85.69;98983.69;124842;1093;64223;-87
2021/08/15 00:26:13;;;;;;;22.53;20.13;;;;;;;20.04;85.93;98988.27;124859;1093;64418;-87
2021/08/15 00:28:40;;;;;;;21.37;19.07;;;;;;;20.02;86.26;98986.73;124914;1093;64394;-87
2021/08/15 00:31:06;;;;;;;22.40;20.20;;;;;;;20.01;86.04;98999.42;124937;1093;64369;-87
2021/08/15 00:33:33;;;;;;;21.40;19.40;;;;;;;20.00;86.51;98994.16;124878;1093;64271;-87
2021/08/15 00:35:59;;;;;;;21.60;19.43;;;;;;;19.97;86.30;99000.73;124885;1093;64289;-87
2021/08/15 00:38:26;;;;;;;21.57;19.47;;;;;;;19.95;86.65;98991.93;124882;1093;64276;-87
2021/08/15 00:40:52;;;;;;;20.70;18.70;;;;;;;19.96;86.55;98990.94;124882;1091;64329;-87
2021/08/15 00:43:19;;;;;;;20.93;19.03;;;;;;;19.97;86.37;98989.08;124901;1093;64343;-87
2021/08/15 00:45:45;;;;;;;22.27;20.13;;;;;;;19.96;86.48;98988.23;124745;1093;64347;-87
2021/08/15 00:48:12;;;;;;;21.10;18.90;;;;;;;19.93;86.34;98989.41;124848;1093;64344;-87
2021/08/15 00:50:39;;;;;;;22.07;19.90;;;;;;;19.86;86.42;98995.63;124748;1093;64283;-87
2021/08/15 00:53:06;;;;;;;20.10;18.13;;;;;;;19.76;86.28;98986.78;124895;1093;64287;-87
2021/08/15 00:55:34;;;;;;;20.70;18.63;;;;;;;19.70;86.40;98988.28;124869;1093;64183;-87
2021/08/15 00:58:04;;;;;;;20.90;18.85;;;;;;;19.64;86.35;98989.74;124932;1093;64325;-87
2021/08/15 01:00:30;;;;;;;21.93;19.60;;;;;;;19.61;86.97;98987.33;124903;1093;64271;-87
2021/08/15 01:02:58;;;;;;;22.20;19.90;;;;;;;19.59;86.93;98985.80;124938;1093;64396;-87
2021/08/15 01:05:25;;;;;;;24.17;21.83;;;;;;;19.55;87.12;98979.03;124890;1093;64396;-87
2021/08/15 01:07:52;;;;;;;23.23;20.83;;;;;;;19.53;87.00;98988.13;124701;1093;64313;-87
2021/08/15 01:10:18;;;;;;;27.45;24.50;;;;;;;19.51;87.07;98978.52;124890;1093;64242;-87
2021/08/15 01:12:46;;;;;;;24.33;21.83;;;;;;;19.53;87.37;98984.59;124839;1093;64271;-87
2021/08/15 01:15:13;;;;;;;23.53;21.23;;;;;;;19.56;87.22;98983.42;124893;1093;64389;-87
2021/08/15 01:17:40;;;;;;;24.47;21.67;;;;;;;19.54;87.07;98983.60;124849;1093;64377;-87
2021/08/15 01:20:09;;;;;;;24.00;21.50;;;;;;;19.53;87.25;98985.43;124911;1093;64326;-87
2021/08/15 01:22:41;;;;;;;22.30;19.87;;;;;;;19.51;87.00;98982.06;124899;1092;64345;-87
2021/08/15 01:25:09;;;;;;;23.70;21.40;;;;;;;19.47;87.19;98986.08;124918;1093;64328;-87
2021/08/15 01:27:43;;;;;;;23.90;21.40;;;;;;;19.45;86.91;98979.98;124960;1093;64249;-87
2021/08/15 01:30:14;;;;;;;25.90;23.20;;;;;;;19.45;87.27;98981.84;124950;1093;64386;-87
2021/08/15 01:32:42;;;;;;;24.87;22.37;;;;;;;19.44;87.32;98981.00;124937;1092;64345;-88
2021/08/15 01:35:09;;;;;;;24.20;21.77;;;;;;;19.44;87.38;98975.59;124953;1093;64357;-87
2021/08/15 01:37:36;;;;;;;25.20;22.70;;;;;;;19.42;87.13;98983.00;124739;1093;64309;-86
2021/08/15 01:40:04;;;;;;;27.63;24.93;;;;;;;19.41;87.36;98975.08;124757;1093;64339;-86
2021/08/15 01:42:31;;;;;;;27.07;24.27;;;;;;;19.41;87.44;98981.33;124931;1093;64264;-87
2021/08/15 01:44:59;;;;;;;29.70;26.53;;;;;;;19.40;87.14;98973.36;124906;1093;64452;-86
2021/08/15 01:47:29;;;;;;;28.50;25.70;;;;;;;19.36;87.20;98972.00;124932;1093;64367;-86
2021/08/15 01:49:55;;;;;;;27.03;24.43;;;;;;;19.33;87.43;98975.03;124867;1093;64326;-87
2021/08/15 01:52:22;;;;;;;25.33;22.73;;;;;;;19.25;87.35;98975.82;124863;1093;64373;-87
2021/08/15 01:54:49;;;;;;;27.97;25.17;;;;;;;19.22;87.35;98976.98;124854;1093;64210;-86
2021/08/15 01:57:15;;;;;;;28.00;25.30;;;;;;;19.23;87.56;98967.02;124900;1093;64223;-87
2021/08/15 01:59:42;;;;;;;28.43;25.47;;;;;;;19.27;88.17;98971.95;124876;1092;64267;-87
2021/08/15 02:02:08;;;;;;;27.10;24.30;;;;;;;19.31;87.74;98967.06;124880;1093;64281;-86
2021/08/15 02:04:35;;;;;;;27.37;24.67;;;;;;;19.33;87.71;98972.33;124898;1093;64335;-87
2021/08/15 02:07:03;;;;;;;26.43;23.50;;;;;;;19.29;87.70;98964.52;124859;1093;64308;-87
2021/08/15 02:09:29;;;;;;;26.55;23.90;;;;;;;19.29;87.90;98969.08;124908;1093;64271;-87
2021/08/15 02:11:56;;;;;;;26.63;24.07;;;;;;;19.26;87.53;98972.09;124890;1093;64270;-87
2021/08/15 02:14:22;;;;;;;28.20;25.23;;;;;;;19.25;87.76;98973.12;124942;1093;64306;-87
2021/08/15 02:16:49;;;;;;;26.97;24.20;;;;;;;19.24;87.64;98968.70;124878;1092;64376;-87
2021/08/15 02:19:15;;;;;;;25.90;23.30;;;;;;;19.22;88.01;98965.30;124883;1091;64180;-87
2021/08/15 02:21:42;;;;;;;23.38;21.15;;;;;;;19.21;87.67;98964.45;124927;1093;64393;-87
2021/08/15 02:24:09;;;;;;;25.07;22.63;;;;;;;19.19;88.02;98957.52;124940;1092;64247;-87
2021/08/15 02:26:35;;;;;;;25.50;22.77;;;;;;;19.19;87.99;98960.22;124954;1093;64290;-87
2021/08/15 02:29:02;;;;;;;25.40;22.80;;;;;;;19.18;87.99;98951.27;124889;1093;64435;-87
2021/08/15 02:31:28;;;;;;;25.63;21.30;;;;;;;19.17;87.62;98951.42;124939;1093;64328;-87
2021/08/15 02:33:55;;;;;;;23.40;21.13;;;;;;;19.26;88.03;98958.59;124800;1093;64355;-87
2021/08/15 02:36:21;;;;;;;24.33;21.93;;;;;;;19.33;88.28;98948.00;124840;1093;64342;-87
2021/08/15 02:38:47;;;;;;;24.93;22.33;;;;;;;19.40;87.95;98949.88;124865;1093;64262;-87
2021/08/15 02:41:14;;;;;;;23.53;21.13;;;;;;;19.36;87.43;98939.57;124804;1093;64419;-87
2021/08/15 02:43:41;;;;;;;22.53;20.43;;;;;;;19.28;87.24;98948.48;124938;1093;64287;-87
2021/08/15 02:46:07;;;;;;;22.67;20.57;;;;;;;19.19;87.52;98944.85;124775;1093;64197;-87
2021/08/15 02:48:34;;;;;;;22.97;20.87;;;;;;;19.11;87.27;98947.50;124787;1093;64220;-87
2021/08/15 02:51:01;;;;;;;24.10;21.63;;;;;;;19.06;87.28;98949.83;124869;1093;64274;-87
2021/08/15 02:53:27;;;;;;;25.15;22.58;;;;;;;19.00;87.73;98943.20;124892;1093;64373;-87
2021/08/15 02:55:54;;;;;;;24.67;22.27;;;;;;;18.98;87.90;98942.52;124830;1093;64276;-87
2021/08/15 02:58:20;;;;;;;24.17;21.30;;;;;;;18.94;87.91;98940.30;124911;1093;64281;-88
2021/08/15 03:00:46;;;;;;;24.57;22.17;;;;;;;18.92;87.69;98935.05;124899;1093;64287;-87
2021/08/15 03:03:13;;;;;;;24.00;21.70;;;;;;;18.89;88.31;98937.23;124874;1093;64363;-87
2021/08/15 03:05:39;;;;;;;24.90;22.33;;;;;;;18.87;87.92;98940.07;124954;1092;64191;-87
2021/08/15 03:08:06;;;;;;;24.30;22.00;;;;;;;18.82;88.17;98928.89;124917;1093;64390;-87
2021/08/15 03:10:32;;;;;;;23.50;21.20;;;;;;;18.79;88.39;98921.95;124976;1092;64207;-87
2021/08/15 03:12:59;;;;;;;23.70;21.30;;;;;;;18.76;88.15;98924.97;124948;1093;64287;-87
2021/08/15 03:15:25;;;;;;;20.37;18.47;;;;;;;18.75;88.37;98925.14;124947;1093;64280;-88
2021/08/15 03:17:52;;;;;;;21.88;19.53;;;;;;;18.73;88.18;98919.86;124822;1092;64338;-88
2021/08/15 03:20:18;;;;;;;21.27;19.27;;;;;;;18.70;88.18;98927.44;124975;1093;64354;-87
2021/08/15 03:22:45;;;;;;;22.97;20.87;;;;;;;18.68;88.63;98924.88;124878;1093;64341;-87
2021/08/15 03:25:11;;;;;;;24.97;22.37;;;;;;;18.66;88.43;98921.48;124884;1092;64244;-88
2021/08/15 03:27:38;;;;;;;24.77;22.37;;;;;;;18.67;88.65;98922.32;124856;1093;64395;-88
2021/08/15 03:30:05;;;;;;;23.30;21.07;;;;;;;18.69;88.82;98917.63;124918;1093;64358;-88
2021/08/15 03:32:31;;;;;;;24.67;22.37;;;;;;;18.72;88.93;98920.00;124880;1093;64294;-88
2021/08/15 03:34:58;;;;;;;23.07;20.77;;;;;;;18.73;88.74;98919.86;124873;1093;64408;-87
2021/08/15 03:37:24;;;;;;;25.23;22.73;;;;;;;18.72;88.96;98923.58;124895;1093;64328;-88
2021/08/15 03:39:53;;;;;;;25.03;22.67;;;;;;;18.71;89.28;98919.16;124749;1093;64278;-88
2021/08/15 03:42:19;;;;;;;24.45;20.70;;;;;;;18.74;89.08;98918.00;124858;1093;64398;-87
2021/08/15 03:44:46;;;;;;;22.73;20.33;;;;;;;18.77;88.86;98918.59;124866;1093;64268;-88
2021/08/15 03:47:12;;;;;;;22.13;20.03;;;;;;;18.80;88.67;98911.99;124882;1093;64267;-88
2021/08/15 03:49:39;;;;;;;22.57;20.27;;;;;;;18.82;88.86;98909.99;124899;1093;64255;-88
2021/08/15 03:52:06;;;;;;;22.10;19.90;;;;;;;18.90;88.94;98911.91;124882;1093;64387;-88
2021/08/15 03:54:32;;;;;;;21.90;19.87;;;;;;;18.98;89.09;98911.95;124838;1093;64270;-88
2021/08/15 03:56:59;;;;;;;21.73;19.63;;;;;;;19.00;88.30;98913.50;124912;1093;64312;-88
2021/08/15 03:59:25;;;;;;;24.85;22.35;;;;;;;19.00;88.47;98902.70;124925;1093;64274;-88
2021/08/15 04:01:52;;;;;;;28.37;25.53;;;;;;;19.16;88.03;98907.35;124877;1093;64271;-88
2021/08/15 04:04:18;;;;;;;22.00;20.00;;;;;;;19.24;88.01;98898.45;124857;1093;64418;-88
2021/08/15 04:06:45;;;;;;;20.13;18.30;;;;;;;19.73;87.22;98902.27;124893;1093;64268;-88
2021/08/15 04:09:11;;;;;;;21.47;19.40;;;;;;;20.24;86.16;98895.97;124912;1093;64274;-88
2021/08/15 04:11:39;;;;;;;20.23;18.33;;;;;;;20.67;85.33;98897.56;124862;1093;64319;-88
2021/08/15 04:14:06;;;;;;;21.30;19.33;;;;;;;21.08;84.67;98891.24;124867;1093;64410;-88
2021/08/15 04:16:33;;;;;;;19.47;17.67;;;;;;;21.48;83.31;98893.02;124842;1093;64319;-88
2021/08/15 04:19:00;;;;;;;21.07;19.27;;;;;;;21.88;82.82;98891.14;124894;1092;64239;-88
2021/08/15 04:21:26;;;;;;;23.10;21.00;;;;;;;22.29;82.09;98889.06;124861;1093;64310;-88
2021/08/15 04:23:53;;;;;;;21.47;19.60;;;;;;;22.67;81.21;98878.26;124907;1093;64159;-86
2021/08/15 04:26:19;;;;;;;23.60;21.40;;;;;;;23.07;80.40;98886.24;124873;1093;64369;-88
2021/08/15 04:28:46;;;;;;;23.70;21.60;;;;;;;23.42;79.40;98876.49;124860;1093;64281;-87
2021/08/15 04:31:12;;;;;;;21.73;19.90;;;;;;;23.77;78.69;98887.65;124885;1093;64495;-88
2021/08/15 04:33:39;;;;;;;23.20;21.13;;;;;;;24.13;77.58;98887.67;124869;1093;64296;-88
2021/08/15 04:36:05;;;;;;;23.57;21.50;;;;;;;24.45;77.11;98886.35;124908;1093;64290;-89
2021/08/15 04:38:32;;;;;;;22.60;20.53;;;;;;;24.78;76.95;98885.83;124749;1092;64334;-89
2021/08/15 04:40:58;;;;;;;21.10;19.30;;;;;;;25.18;75.73;98876.08;124875;1093;64325;-88
2021/08/15 04:43:25;;;;;;;21.13;19.23;;;;;;;25.28;74.91;98878.47;124873;1093;64415;-88
2021/08/15 04:45:51;;;;;;;23.50;21.50;;;;;;;25.44;75.04;98871.84;124862;1093;64197;-88
2021/08/15 04:48:17;;;;;;;22.10;20.25;;;;;;;25.79;74.11;98875.36;124905;1093;64258;-89
2021/08/15 04:50:44;;;;;;;22.37;20.37;;;;;;;25.94;73.73;98864.32;124881;1093;64197;-88
2021/08/15 04:53:11;;;;;;;21.33;19.40;;;;;;;26.27;73.42;98866.29;124729;1093;64309;-87
2021/08/15 04:55:38;;;;;;;20.90;19.00;;;;;;;26.53;72.67;98868.25;124889;1093;64354;-87
2021/08/15 04:58:05;;;;;;;21.00;19.23;;;;;;;26.79;71.56;98872.06;124877;1093;64219;-87
2021/08/15 05:00:32;;;;;;;21.80;19.40;;;;;;;26.99;71.64;98867.43;124892;1093;64335;-88
2021/08/15 05:02:59;;;;;;;20.10;18.40;;;;;;;27.30;70.70;98872.23;124880;1093;64284;-87
2021/08/15 05:05:26;;;;;;;19.70;18.10;;;;;;;27.53;70.05;98869.02;124873;1092;64248;-87
2021/08/15 05:07:52;;;;;;;20.07;18.20;;;;;;;27.72;69.46;98869.16;124892;1093;64358;-87
2021/08/15 05:10:19;;;;;;;20.03;18.30;;;;;;;27.84;68.57;98874.85;124905;1093;64408;-88
2021/08/15 05:12:45;;;;;;;19.37;17.47;;;;;;;27.94;67.83;98876.06;124968;1093;64284;-90
2021/08/15 05:15:12;;;;;;;18.13;16.63;;;;;;;28.00;67.05;98874.34;124973;1092;64291;-91
2021/08/15 05:17:38;;;;;;;18.83;17.13;;;;;;;28.08;67.03;98876.00;124739;1093;64274;-88
2021/08/15 05:20:06;;;;;;;17.80;16.30;;;;;;;28.31;66.99;98870.80;125024;1093;64473;-89
2021/08/15 05:22:32;;;;;;;19.77;17.97;;;;;;;28.51;67.09;98873.42;124723;1093;64281;-89
2021/08/15 05:24:59;;;;;;;16.77;15.37;;;;;;;28.48;65.90;98871.13;124891;1093;64157;-89
2021/08/15 05:27:25;;;;;;;17.17;15.57;;;;;;;28.53;65.95;98873.22;124875;1093;64271;-87
2021/08/15 05:29:52;;;;;;;17.05;15.45;;;;;;;28.73;65.33;98865.69;124828;1093;64309;-87
2021/08/15 05:32:18;;;;;;;17.70;16.10;;;;;;;28.95;64.65;98862.54;124911;1092;64241;-87
2021/08/15 05:34:45;;;;;;;15.97;14.87;;;;;;;29.12;64.19;98865.56;124887;1093;64335;-87
2021/08/15 05:37:11;;;;;;;17.00;15.60;;;;;;;29.25;64.05;98869.05;124953;1093;64271;-87
2021/08/15 05:39:38;;;;;;;16.47;15.07;;;;;;;29.35;63.28;98864.92;124940;1093;64207;-87
2021/08/15 05:42:04;;;;;;;16.30;14.93;;;;;;;29.36;62.74;98864.70;124916;1093;64287;-86
2021/08/15 05:44:31;;;;;;;17.00;15.50;;;;;;;29.34;62.14;98861.34;124925;1092;64309;-87
2021/08/15 05:46:57;;;;;;;16.90;15.40;;;;;;;29.23;61.72;98851.95;124848;1093;64273;-87
2021/08/15 05:49:24;;;;;;;16.67;15.27;;;;;;;29.22;61.68;98860.41;124927;1093;64360;-87
2021/08/15 05:51:50;;;;;;;16.90;15.60;;;;;;;29.21;61.52;98861.48;124916;1093;64197;-87
2021/08/15 05:54:17;;;;;;;16.10;14.60;;;;;;;29.12;61.81;98854.59;124847;1093;64287;-87
2021/08/15 05:56:43;;;;;;;16.33;14.93;;;;;;;29.12;61.82;98855.42;124838;1093;64779;-87
2021/08/15 05:59:09;;;;;;;16.07;14.77;;;;;;;29.20;62.09;98854.30;124879;1093;64305;-87
2021/08/15 06:01:36;;;;;;;16.63;15.07;;;;;;;29.30;61.48;98851.87;124930;1093;64271;-88
2021/08/15 06:04:03;;;;;;;16.50;14.83;;;;;;;29.39;61.62;98852.43;124864;1093;64185;-88
2021/08/15 06:06:29;;;;;;;16.47;14.97;;;;;;;29.41;60.86;98848.39;124788;1093;64366;-88
2021/08/15 06:08:56;;;;;;;15.73;14.47;;;;;;;29.42;61.43;98844.56;124769;1091;64328;-87
2021/08/15 06:11:22;;;;;;;16.33;14.83;;;;;;;29.52;60.79;98855.86;124908;1093;64272;-87
2021/08/15 06:13:50;;;;;;;15.40;14.00;;;;;;;29.63;60.89;98853.42;124912;1093;64251;-88
2021/08/15 06:16:17;;;;;;;15.30;13.97;;;;;;;29.64;60.63;98852.34;124865;1091;64310;-87
2021/08/15 06:18:43;;;;;;;13.93;12.73;;;;;;;29.75;60.75;98851.59;124847;1093;64258;-88
2021/08/15 06:21:10;;;;;;;14.13;12.83;;;;;;;29.79;60.48;98847.32;124897;1093;64322;-87
2021/08/15 06:23:36;;;;;;;13.87;12.77;;;;;;;29.81;60.68;98841.61;124895;1093;64265;-88
2021/08/15 06:26:04;;;;;;;13.57;12.37;;;;;;;29.83;60.10;98848.52;124915;1093;64191;-88
2021/08/15 06:28:31;;;;;;;15.03;12.47;;;;;;;29.86;60.37;98845.34;124880;1093;64290;-89
2021/08/15 06:30:57;;;;;;;14.47;13.10;;;;;;;29.94;60.16;98842.27;124973;1093;64284;-87
2021/08/15 06:33:24;;;;;;;12.80;11.80;;;;;;;30.00;59.99;98842.41;124890;1093;64265;-87
2021/08/15 06:35:50;;;;;;;14.23;12.93;;;;;;;30.00;59.22;98845.98;124905;1093;64267;-88
2021/08/15 06:38:17;;;;;;;15.63;12.37;;;;;;;29.96;59.85;98855.75;124866;1093;64287;-88
2021/08/15 06:40:43;;;;;;;13.40;12.20;;;;;;;29.99;59.79;98847.07;124868;1092;64389;-88
2021/08/15 06:43:11;;;;;;;13.33;12.00;;;;;;;30.13;59.66;98853.22;124893;1092;64364;-88
2021/08/15 06:45:40;;;;;;;12.50;11.50;;;;;;;30.25;59.33;98851.36;124949;1093;64182;-88
2021/08/15 06:48:07;;;;;;;12.80;11.60;;;;;;;30.26;59.61;98847.55;124835;1093;64242;-87
2021/08/15 06:50:34;;;;;;;12.83;11.60;;;;;;;30.32;59.59;98851.28;124880;1093;64217;-87
2021/08/15 06:53:00;;;;;;;12.83;11.57;;;;;;;30.27;59.71;98851.14;124908;1092;64214;-87
2021/08/15 06:55:27;;;;;;;13.17;11.93;;;;;;;30.27;59.73;98851.97;124856;1093;64397;-87
2021/08/15 06:57:53;;;;;;;12.23;11.20;;;;;;;30.33;59.58;98851.05;124866;1093;64428;-88
2021/08/15 07:00:20;;;;;;;12.90;11.60;;;;;;;30.38;59.54;98851.16;124878;1093;64371;-87
2021/08/15 07:02:48;;;;;;;12.97;11.77;;;;;;;30.30;59.80;98845.16;124879;1093;64268;-87
2021/08/15 07:05:16;;;;;;;13.03;11.93;;;;;;;30.02;60.05;98845.73;124885;1093;64309;-87
2021/08/15 07:07:43;;;;;;;13.23;11.93;;;;;;;29.78;60.33;98848.41;124843;1093;64284;-87
2021/08/15 07:10:10;;;;;;;13.53;12.50;;;;;;;29.55;60.80;98835.34;124867;1093;64287;-88
2021/08/15 07:12:37;;;;;;;12.93;11.83;;;;;;;29.37;61.06;98838.92;124949;1093;64294;-87
2021/08/15 07:15:06;;;;;;;12.97;11.97;;;;;;;29.25;60.95;98838.85;124880;1093;64226;-88
2021/08/15 07:17:36;;;;;;;;;;;;;;;29.07;61.47;98850.64;124928;1092;64271;-87
2021/08/15 07:20:08;;;;;;;13.37;11.97;;;;;;;28.96;61.59;98850.48;124922;1093;64360;-88
2021/08/15 07:22:34;;;;;;;14.40;13.07;;;;;;;28.89;61.62;98845.08;124907;1093;64452;-88
2021/08/15 07:25:03;;;;;;;12.90;11.80;;;;;;;28.83;61.69;98843.22;124887;1093;64271;-88
2021/08/15 07:27:30;;;;;;;13.40;12.13;;;;;;;28.79;62.04;98845.58;124890;1091;64294;-88
2021/08/15 07:29:57;;;;;;;13.50;12.30;;;;;;;28.79;62.08;98848.32;124916;1093;64361;-87
2021/08/15 07:32:23;;;;;;;13.17;12.07;;;;;;;28.81;62.13;98850.85;124859;1093;64308;-87
2021/08/15 07:34:50;;;;;;;12.83;11.63;;;;;;;28.81;62.31;98848.11;124884;1093;64242;-87
2021/08/15 07:37:16;;;;;;;12.83;11.53;;;;;;;28.86;62.21;98846.37;124911;1093;64271;-87
2021/08/15 07:39:43;;;;;;;12.70;11.40;;;;;;;28.89;62.82;98851.41;124840;1093;64396;-87
2021/08/15 07:42:30;;;;;;;12.73;11.63;;;;;;;28.99;62.71;98841.80;125357;1092;64288;-94
2021/08/15 07:44:56;;;;;;;13.40;12.20;;;;;;;28.97;62.31;98846.70;125282;1093;64287;-91
2021/08/15 07:47:23;;;;;;;13.13;12.03;;;;;;;28.95;62.80;98852.40;124977;1093;64361;-91
2021/08/15 07:49:49;;;;;;;13.27;12.17;;;;;;;28.90;62.87;98854.98;124930;1093;64287;-87
2021/08/15 07:52:16;;;;;;;12.60;11.43;;;;;;;28.91;63.08;98848.41;124973;1093;64338;-89
2021/08/15 07:54:42;;;;;;;11.63;10.53;;;;;;;28.95;63.09;98855.14;124918;1093;64309;-91
2021/08/15 07:57:09;;;;;;;12.55;11.40;;;;;;;29.00;63.25;98848.98;124902;1090;64361;-83
2021/08/15 17:40:58;;;;;;;10.40;8.57;;;;;;;27.71;46.46;98536.17;125427;1093;64251;-90
2021/08/15 17:43:26;;;;;;;9.53;7.57;;;;;;;27.63;47.09;98534.56;125053;1093;64274;-89
2021/08/15 17:45:53;;;;;;;8.97;8.10;;;;;;;27.54;47.08;98547.70;124998;1093;64278;-89
2021/08/15 17:48:20;;;;;;;8.80;8.00;;;;;;;27.43;47.27;98542.92;125023;1093;64313;-90
2021/08/15 17:50:47;;;;;;;9.70;7.97;;;;;;;27.31;47.58;98547.45;125105;1093;64509;-90
2021/08/15 17:53:15;;;;;;;9.07;8.17;;;;;;;27.19;47.86;98550.05;125003;1093;64392;-90
2021/08/15 17:55:42;;;;;;;8.97;7.47;;;;;;;27.09;47.77;98557.86;125064;1092;64275;-89
2021/08/15 17:58:10;;;;;;;9.07;8.20;;;;;;;26.99;48.82;98562.97;125088;1093;64319;-90
2021/08/15 18:00:37;;;;;;;11.03;8.13;;;;;;;26.84;49.38;98558.64;125155;1094;64351;-90
2021/08/15 18:03:04;;;;;;;9.77;8.70;;;;;;;26.67;50.01;98557.45;125040;1093;64259;-90
2021/08/15 18:05:32;;;;;;;9.77;8.77;;;;;;;26.52;50.52;98554.18;125043;1093;64290;-90
2021/08/15 18:07:59;;;;;;;9.77;8.80;;;;;;;26.36;50.86;98553.56;125087;1093;64323;-91
2021/08/15 18:10:27;;;;;;;12.13;9.90;;;;;;;26.20;50.93;98552.14;125031;1094;64398;-90
2021/08/15 18:12:54;;;;;;;10.63;9.53;;;;;;;26.05;51.53;98554.28;125149;1093;64284;-90
2021/08/15 18:15:21;;;;;;;11.53;9.87;;;;;;;25.93;51.89;98547.78;125223;1093;64187;-92
2021/08/15 18:17:49;;;;;;;10.70;9.73;;;;;;;25.80;52.33;98552.19;125093;1093;64300;-91
2021/08/15 18:20:18;;;;;;;10.30;9.30;;;;;;;25.66;52.91;98558.70;125007;1093;64383;-91
2021/08/15 18:22:46;;;;;;;11.03;9.93;;;;;;;25.51;52.82;98560.78;125031;1092;64340;-91
2021/08/15 18:25:14;;;;;;;11.10;10.10;;;;;;;25.36;53.44;98564.57;125074;1093;64255;-89
2021/08/15 18:27:43;;;;;;;10.87;9.77;;;;;;;25.24;54.28;98571.67;125038;1093;64285;-91
2021/08/15 18:30:11;;;;;;;11.03;10.00;;;;;;;25.07;54.54;98571.20;125016;1093;64293;-92
2021/08/15 18:32:40;;;;;;;10.80;9.70;;;;;;;24.86;55.27;98580.38;125024;1093;64281;-91
2021/08/15 18:35:11;;;;;;;23.67;20.13;;;;;;;24.71;55.36;98582.41;126224;1093;64217;-91
2021/08/15 18:37:40;;;;;;;18.77;16.83;;;;;;;24.62;55.81;98580.89;125334;1094;64486;-91
2021/08/15 18:40:09;;;;;;;21.27;17.57;;;;;;;24.56;56.16;98582.55;124987;1094;64447;-90
2021/08/15 18:42:36;;;;;;;17.00;15.20;;;;;;;24.47;56.63;98572.88;125010;1093;64338;-91
2021/08/15 18:45:05;;;;;;;20.73;17.60;;;;;;;24.36;57.14;98582.44;124914;1093;64242;-91
2021/08/15 18:47:32;;;;;;;24.83;20.20;;;;;;;24.28;57.43;98588.89;125104;1093;64405;-91
2021/08/15 18:50:00;;;;;;;25.03;21.17;;;;;;;24.21;57.86;98585.27;125051;1093;64277;-91
2021/08/15 18:52:27;;;;;;;27.67;22.30;;;;;;;24.12;58.17;98581.05;124999;1092;64280;-90
2021/08/15 18:54:55;;;;;;;36.63;28.80;;;;;;;24.04;58.41;98578.45;124944;1094;64281;-90
2021/08/15 18:57:22;;;;;;;33.53;29.00;;;;;;;23.94;58.83;98573.38;125066;1097;64370;-92
2021/08/15 18:59:50;;;;;;;30.07;24.10;;;;;;;23.86;59.45;98574.38;125195;1093;64293;-90
2021/08/15 19:02:18;;;;;;;30.10;24.47;;;;;;;23.78;59.78;98574.52;125062;1093;64341;-90
2021/08/15 19:04:45;;;;;;;27.83;21.77;;;;;;;23.72;60.26;98575.30;125080;1093;64338;-90
2021/08/15 19:07:12;;;;;;;27.43;21.57;;;;;;;23.69;60.28;98581.10;125071;1096;64357;-91
2021/08/15 19:09:40;;;;;;;26.05;21.45;;;;;;;23.64;60.26;98559.95;124701;1097;64280;-91
2021/08/15 19:12:07;;;;;;;25.40;20.75;;;;;;;23.63;60.50;98563.69;125127;1097;64293;-91
2021/08/15 19:14:35;;;;;;;25.23;21.50;;;;;;;23.61;60.63;98571.20;125091;1095;64372;-90
2021/08/15 19:17:02;;;;;;;26.30;22.43;;;;;;;23.58;60.75;98577.05;124951;1093;64405;-90
2021/08/15 19:19:29;;;;;;;29.47;24.80;;;;;;;23.55;61.01;98582.05;125168;1093;64342;-91
2021/08/15 19:21:56;;;;;;;30.70;24.43;;;;;;;23.54;61.27;98581.20;125539;1093;64303;-90
2021/08/15 19:24:25;;;;;;;29.15;23.20;;;;;;;23.53;61.44;98575.95;125659;1093;62971;-91
2021/08/15 19:26:54;;;;;;;25.90;22.85;;;;;;;23.51;61.56;98580.73;125201;1093;64363;-90
2021/08/15 19:29:22;;;;;;;23.50;21.10;;;;;;;23.49;61.70;98572.80;125790;1093;64301;-91
2021/08/15 19:31:49;;;;;;;17.70;15.13;;;;;;;23.48;61.72;98556.66;125635;1093;64216;-91
2021/08/15 19:34:16;;;;;;;17.10;15.13;;;;;;;23.44;61.68;98562.49;125578;1093;64338;-89
2021/08/15 19:36:44;;;;;;;21.63;17.27;;;;;;;23.41;62.18;98565.61;125678;1093;64261;-91
2021/08/15 19:39:11;;;;;;;20.43;16.57;;;;;;;23.37;62.26;98563.47;125663;1093;64677;-92
2021/08/15 19:41:39;;;;;;;22.57;18.73;;;;;;;23.31;62.55;98566.98;125428;1093;64511;-91
2021/08/15 19:44:07;;;;;;;22.20;18.23;;;;;;;23.25;62.55;98582.20;125463;1093;64312;-90
2021/08/15 19:46:34;;;;;;;19.93;16.77;;;;;;;23.17;62.87;98575.01;125402;1093;64287;-89
2021/08/15 19:49:02;;;;;;;18.07;16.00;;;;;;;23.09;63.29;98564.27;125540;1093;64380;-89
2021/08/15 19:51:31;;;;;;;19.53;16.97;;;;;;;23.02;63.64;98568.78;125567;1093;64284;-91
2021/08/15 19:53:59;;;;;;;20.33;16.93;;;;;;;22.93;64.03;98561.73;125419;1093;64341;-90
2021/08/15 19:56:27;;;;;;;20.63;17.70;;;;;;;22.88;64.61;98566.91;125403;1093;64237;-89
2021/08/15 19:58:55;;;;;;;19.90;17.73;;;;;;;22.85;64.82;98568.13;125464;1093;64223;-90
2021/08/15 20:01:22;;;;;;;18.10;16.23;;;;;;;22.74;65.01;98569.47;125791;1093;64316;-90
2021/08/15 20:03:50;;;;;;;19.20;17.23;;;;;;;22.68;65.14;98567.53;125564;1093;64191;-90
2021/08/15 20:06:18;;;;;;;18.97;15.53;;;;;;;22.65;65.40;98564.36;125413;1093;64290;-90
2021/08/15 20:08:46;;;;;;;18.30;16.13;;;;;;;22.60;65.77;98567.64;125431;1093;64297;-91
2021/08/15 20:11:13;;;;;;;17.80;15.73;;;;;;;22.52;66.08;98567.75;125469;1093;64323;-90
2021/08/15 20:13:41;;;;;;;17.43;15.40;;;;;;;22.44;66.31;98559.72;125409;1093;64152;-91
2021/08/15 20:16:09;;;;;;;18.23;16.33;;;;;;;22.38;66.82;98558.61;125566;1093;64156;-89
2021/08/15 20:18:37;;;;;;;18.13;16.23;;;;;;;22.36;67.02;98563.38;125294;1093;64463;-90
2021/08/15 20:21:05;;;;;;;23.10;20.60;;;;;;;22.31;67.30;98568.53;125469;1093;64775;-89
2021/08/15 20:23:34;;;;;;;28.20;25.17;;;;;;;22.26;67.72;98569.08;126292;1094;64164;-90
2021/08/15 20:26:02;;;;;;;29.28;25.75;;;;;;;22.25;67.78;98566.55;125497;1093;64280;-92
2021/08/15 20:28:30;;;;;;;28.37;25.43;;;;;;;22.19;68.22;98562.71;125200;1093;64312;-91
2021/08/15 20:30:58;;;;;;;29.30;25.03;;;;;;;22.14;68.15;98565.11;125864;1093;63076;-91
2021/08/15 20:33:25;;;;;;;24.87;22.43;;;;;;;22.17;68.53;98544.89;126170;1093;64328;-91
2021/08/15 20:35:52;;;;;;;27.23;23.50;;;;;;;22.19;68.62;98549.14;125902;1091;64628;-90
2021/08/15 20:38:20;;;;;;;28.13;23.57;;;;;;;22.20;68.86;98542.70;125992;1093;64311;-91
2021/08/15 20:40:49;;;;;;;28.97;22.37;;;;;;;22.18;68.83;98538.45;125731;1093;64303;-91
2021/08/15 20:43:17;;;;;;;21.43;18.90;;;;;;;22.13;69.27;98528.99;125946;1093;64328;-90
2021/08/15 20:45:45;;;;;;;19.70;17.60;;;;;;;22.12;69.12;98524.61;126155;1093;64223;-90
2021/08/15 20:48:12;;;;;;;19.07;17.10;;;;;;;22.14;69.47;98522.55;126247;1093;63006;-90
2021/08/15 20:50:40;;;;;;;19.63;17.63;;;;;;;22.19;69.78;98518.45;126157;1093;64333;-90